createdAt,value
2023-03-07T00:00:17.269Z,17.77
2023-03-07T00:02:44.956Z,19.77
2023-03-07T00:05:14.794Z,20.57
2023-03-07T00:07:42.052Z,17.23
2023-03-07T00:10:10.180Z,20.20
2023-03-07T00:12:37.440Z,19.80
2023-03-07T00:15:05.138Z,20.57
2023-03-07T00:17:32.364Z,20.93
2023-03-07T00:19:59.653Z,20.87
2023-03-07T00:22:26.970Z,20.07
2023-03-07T00:24:54.235Z,20.17
2023-03-07T00:27:21.852Z,19.87
2023-03-07T00:29:50.199Z,18.87
2023-03-07T00:32:18.077Z,19.23
2023-03-07T00:34:45.692Z,18.80
2023-03-07T00:37:13.921Z,23.13
2023-03-07T00:39:42.381Z,19.93
2023-03-07T00:42:09.808Z,21.30
2023-03-07T00:44:37.101Z,20.30
2023-03-07T00:47:04.533Z,20.37
2023-03-07T00:49:31.884Z,20.87
2023-03-07T00:51:59.472Z,19.97
2023-03-07T00:54:28.113Z,18.83
2023-03-07T00:56:56.237Z,16.93
2023-03-07T00:59:23.471Z,20.93
2023-03-07T01:01:50.891Z,21.90
2023-03-07T01:04:18.290Z,18.47
2023-03-07T01:06:45.687Z,19.80
2023-03-07T01:09:13.292Z,17.80
2023-03-07T01:11:40.714Z,20.47
2023-03-07T01:14:08.632Z,20.17
2023-03-07T01:16:38.060Z,21.63
2023-03-07T01:19:09.551Z,17.23
2023-03-07T01:21:39.518Z,19.57
2023-03-07T01:24:10.436Z,20.87
2023-03-07T01:26:37.933Z,20.23
2023-03-07T01:29:07.009Z,19.83
2023-03-07T01:31:36.231Z,20.53
2023-03-07T01:34:05.128Z,20.40
2023-03-07T01:36:36.418Z,20.60
2023-03-07T01:39:13.187Z,19.67
2023-03-07T01:41:45.972Z,25.47
2023-03-07T01:44:17.066Z,21.53
2023-03-07T01:46:47.567Z,22.40
2023-03-07T01:49:21.998Z,22.80
2023-03-07T01:52:20.632Z,21.30
2023-03-07T01:54:56.023Z,19.67
2023-03-07T01:57:28.446Z,20.07
2023-03-07T01:59:59.488Z,19.57
2023-03-07T02:02:28.259Z,17.73
2023-03-07T02:05:22.159Z,21.37
2023-03-07T02:07:51.354Z,23.37
2023-03-07T02:10:23.762Z,19.10
2023-03-07T02:12:53.263Z,17.30
2023-03-07T02:15:21.720Z,17.73
2023-03-07T02:17:49.797Z,19.57
2023-03-07T02:20:58.121Z,19.93
2023-03-07T02:23:50.415Z,19.40
2023-03-07T02:26:44.220Z,15.53
2023-03-07T02:29:13.351Z,16.50
2023-03-07T02:31:41.787Z,19.10
2023-03-07T02:34:19.569Z,18.37
2023-03-07T02:36:51.448Z,18.33
2023-03-07T02:39:23.994Z,19.47
2023-03-07T02:41:56.444Z,18.50
2023-03-07T02:44:31.963Z,19.13
2023-03-07T02:46:59.443Z,18.93
2023-03-07T02:49:28.449Z,19.03
2023-03-07T02:51:58.256Z,21.20
2023-03-07T02:54:25.520Z,18.87
2023-03-07T02:56:54.100Z,19.90
2023-03-07T02:59:21.525Z,18.93
2023-03-07T03:01:48.955Z,20.80
2023-03-07T03:04:16.388Z,21.13
2023-03-07T03:06:43.716Z,18.97
2023-03-07T03:09:11.477Z,20.10
2023-03-07T03:11:38.756Z,22.47
2023-03-07T03:14:06.225Z,21.43
2023-03-07T03:16:33.820Z,21.20
2023-03-07T03:19:01.349Z,21.17
2023-03-07T03:21:28.970Z,19.50
2023-03-07T03:23:56.264Z,22.60
2023-03-07T03:26:23.703Z,19.10
2023-03-07T03:28:54.377Z,20.30
2023-03-07T03:31:21.954Z,19.63
2023-03-07T03:33:52.077Z,21.37
2023-03-07T03:36:20.333Z,16.73
2023-03-07T03:38:49.663Z,18.27
2023-03-07T03:41:17.127Z,23.93
2023-03-07T03:43:46.196Z,16.73
2023-03-07T03:46:13.983Z,20.67
2023-03-07T03:48:41.380Z,18.33
2023-03-07T03:51:14.604Z,19.17
2023-03-07T03:53:42.079Z,18.70
2023-03-07T03:56:15.320Z,20.70
2023-03-07T03:58:43.402Z,19.80
2023-03-07T04:01:12.200Z,21.17
2023-03-07T04:03:41.920Z,18.40
2023-03-07T04:06:12.975Z,20.60
2023-03-07T04:08:40.977Z,20.70
2023-03-07T04:11:08.247Z,20.33
2023-03-07T04:13:36.808Z,20.43
2023-03-07T04:16:04.954Z,24.30
2023-03-07T04:18:32.663Z,19.20
2023-03-07T04:21:00.242Z,21.77
2023-03-07T04:23:28.453Z,18.33
2023-03-07T04:25:58.287Z,20.90
2023-03-07T04:28:28.605Z,18.73
2023-03-07T04:30:56.448Z,24.13
2023-03-07T04:33:27.314Z,20.60
2023-03-07T04:35:54.583Z,21.33
2023-03-07T04:38:21.903Z,18.97
2023-03-07T04:40:49.302Z,19.77
2023-03-07T04:43:16.751Z,21.17
2023-03-07T04:45:44.103Z,19.20
2023-03-07T04:48:11.417Z,22.60
2023-03-07T04:50:38.684Z,19.40
2023-03-07T04:53:07.220Z,17.30
2023-03-07T04:55:34.620Z,16.47
2023-03-07T04:58:02.097Z,21.73
2023-03-07T05:00:29.637Z,20.17
2023-03-07T05:02:58.648Z,19.83
2023-03-07T05:05:26.251Z,22.00
2023-03-07T05:07:53.848Z,19.67
2023-03-07T05:10:21.151Z,23.20
2023-03-07T05:12:48.541Z,20.47
2023-03-07T05:15:15.850Z,20.67
2023-03-07T05:17:43.285Z,21.63
2023-03-07T05:20:12.693Z,20.97
2023-03-07T05:22:40.214Z,19.00
2023-03-07T05:25:08.169Z,22.77
2023-03-07T05:27:35.868Z,24.43
2023-03-07T05:30:03.669Z,20.73
2023-03-07T05:32:30.981Z,25.33
2023-03-07T05:34:58.998Z,25.77
2023-03-07T05:37:26.568Z,21.97
2023-03-07T05:39:54.112Z,21.90
2023-03-07T05:42:21.802Z,24.33
2023-03-07T05:44:50.294Z,26.10
2023-03-07T05:47:17.921Z,34.33
2023-03-07T05:49:45.250Z,27.37
2023-03-07T05:52:14.595Z,24.03
2023-03-07T05:54:42.191Z,28.50
2023-03-07T05:57:10.042Z,20.73
2023-03-07T05:59:37.875Z,27.33
2023-03-07T06:02:05.668Z,22.40
2023-03-07T06:04:33.098Z,24.43
2023-03-07T06:07:01.015Z,28.03
2023-03-07T06:09:28.272Z,25.00
2023-03-07T06:11:57.922Z,28.63
2023-03-07T06:14:25.720Z,25.67
2023-03-07T06:16:52.992Z,25.07
2023-03-07T06:19:20.979Z,22.50
2023-03-07T06:21:49.669Z,21.40
2023-03-07T06:24:17.050Z,27.90
2023-03-07T06:26:45.154Z,24.87
2023-03-07T06:29:13.423Z,26.70
2023-03-07T06:31:41.143Z,22.30
2023-03-07T06:34:08.732Z,55.23
2023-03-07T06:36:36.448Z,34.63
2023-03-07T06:39:04.489Z,32.07
2023-03-07T06:41:31.862Z,27.57
2023-03-07T06:44:01.655Z,30.90
2023-03-07T06:46:32.072Z,23.23
2023-03-07T06:49:02.185Z,27.17
2023-03-07T06:51:29.872Z,38.67
2023-03-07T06:53:58.950Z,23.13
2023-03-07T06:56:29.909Z,24.87
2023-03-07T06:58:58.057Z,25.27
2023-03-07T07:01:26.168Z,28.57
2023-03-07T07:03:56.577Z,35.50
2023-03-07T07:06:24.381Z,27.27
2023-03-07T07:08:55.427Z,23.37
2023-03-07T07:11:26.214Z,24.50
2023-03-07T07:13:54.168Z,25.83
2023-03-07T07:16:22.205Z,28.97
2023-03-07T07:18:52.875Z,25.63
2023-03-07T07:21:20.630Z,29.77
2023-03-07T07:23:48.632Z,22.57
2023-03-07T07:26:16.200Z,25.37
2023-03-07T07:28:43.561Z,19.40
2023-03-07T07:31:10.873Z,15.90
2023-03-07T07:33:38.596Z,26.03
2023-03-07T07:36:08.046Z,22.30
2023-03-07T07:38:37.019Z,21.23
2023-03-07T07:41:04.684Z,17.90
2023-03-07T07:43:33.009Z,16.00
2023-03-07T07:46:25.448Z,17.80
2023-03-07T07:48:52.765Z,17.30
2023-03-07T07:51:20.179Z,17.57
2023-03-07T07:53:47.787Z,14.70
2023-03-07T07:56:15.315Z,19.83
2023-03-07T07:58:42.634Z,16.77
2023-03-07T08:01:24.617Z,20.63
2023-03-07T08:03:51.995Z,22.47
2023-03-07T08:06:21.154Z,16.37
2023-03-07T08:08:49.198Z,17.63
2023-03-07T08:11:17.710Z,16.37
2023-03-07T08:13:45.455Z,23.20
2023-03-07T08:16:18.117Z,21.17
2023-03-07T08:18:56.255Z,25.00
2023-03-07T08:21:24.832Z,17.70
2023-03-07T08:23:56.530Z,19.50
2023-03-07T08:26:24.322Z,18.73
2023-03-07T08:28:51.578Z,17.63
2023-03-07T08:31:23.615Z,18.00
2023-03-07T08:33:51.643Z,20.47
2023-03-07T08:36:19.273Z,20.07
2023-03-07T08:38:51.754Z,19.77
2023-03-07T08:41:20.288Z,20.00
2023-03-07T08:43:47.900Z,20.83
2023-03-07T08:46:16.603Z,18.30
2023-03-07T08:48:43.991Z,22.47
2023-03-07T08:51:14.999Z,17.93
2023-03-07T08:53:43.180Z,19.20
2023-03-07T08:56:16.064Z,17.30
2023-03-07T08:58:43.720Z,19.10
2023-03-07T09:01:13.076Z,21.97
2023-03-07T09:03:40.431Z,18.13
2023-03-07T09:06:08.290Z,20.07
2023-03-07T09:08:35.525Z,17.80
2023-03-07T09:11:05.390Z,18.20
2023-03-07T09:13:36.190Z,18.03
2023-03-07T09:16:08.321Z,21.37
2023-03-07T09:18:36.401Z,20.63
2023-03-07T09:21:05.631Z,16.83
2023-03-07T09:23:33.380Z,18.20
2023-03-07T09:26:01.654Z,18.33
2023-03-07T09:28:28.954Z,16.73
2023-03-07T09:30:56.188Z,15.93
2023-03-07T09:33:23.529Z,17.83
2023-03-07T09:35:50.985Z,18.97
2023-03-07T09:38:18.385Z,14.80
2023-03-07T09:40:47.710Z,15.97
2023-03-07T09:43:23.100Z,16.00
2023-03-07T09:46:31.322Z,14.87
2023-03-07T09:49:07.195Z,19.03
2023-03-07T09:51:41.050Z,15.20
2023-03-07T09:54:21.521Z,23.80
2023-03-07T09:56:56.754Z,18.73
2023-03-07T09:59:43.655Z,15.73
2023-03-07T10:02:34.669Z,15.90
2023-03-07T10:05:26.957Z,16.53
2023-03-07T10:07:55.252Z,15.03
2023-03-07T10:10:42.657Z,13.90
2023-03-07T10:13:43.937Z,13.87
2023-03-07T10:16:38.570Z,14.17
2023-03-07T10:19:37.227Z,12.73
2023-03-07T10:22:28.368Z,13.90
2023-03-07T10:25:17.385Z,13.53
2023-03-07T10:27:48.337Z,14.00
2023-03-07T10:30:21.103Z,12.50
2023-03-07T10:32:53.627Z,12.90
2023-03-07T10:35:31.937Z,14.27
2023-03-07T10:38:32.694Z,14.83
2023-03-07T10:41:16.446Z,14.47
2023-03-07T10:43:45.530Z,16.63
2023-03-07T10:46:27.491Z,14.27
2023-03-07T10:49:10.228Z,13.90
2023-03-07T10:52:15.677Z,12.37
2023-03-07T10:54:43.246Z,15.97
2023-03-07T10:57:16.627Z,14.30
2023-03-07T10:59:50.126Z,12.53
2023-03-07T11:02:36.097Z,14.80
2023-03-07T11:05:40.671Z,13.27
2023-03-07T11:08:26.009Z,14.03
2023-03-07T11:10:53.648Z,12.47
2023-03-07T11:13:22.466Z,15.57
2023-03-07T11:15:50.311Z,15.03
2023-03-07T11:18:38.120Z,15.23
2023-03-07T11:21:05.898Z,14.50
2023-03-07T11:23:33.207Z,13.30
2023-03-07T11:26:21.726Z,11.97
2023-03-07T11:29:14.019Z,15.80
2023-03-07T11:31:52.970Z,14.53
2023-03-07T11:34:46.575Z,10.93
2023-03-07T11:37:33.085Z,8.80
2023-03-07T11:40:12.669Z,9.87
2023-03-07T11:42:50.168Z,9.23
2023-03-07T11:45:29.718Z,8.00
2023-03-07T11:48:21.703Z,8.93
2023-03-07T11:50:54.508Z,8.63
2023-03-07T11:53:33.609Z,7.40
2023-03-07T11:56:22.387Z,9.67
2023-03-07T11:59:04.622Z,7.43
2023-03-07T12:01:40.796Z,7.90
2023-03-07T12:04:46.062Z,6.97
2023-03-07T12:07:37.195Z,6.70
2023-03-07T12:10:40.265Z,6.17
2023-03-07T12:13:19.120Z,7.00
2023-03-07T12:16:15.398Z,7.07
2023-03-07T12:18:48.542Z,9.57
2023-03-07T12:21:57.103Z,5.20
2023-03-07T12:24:42.183Z,5.20
2023-03-07T12:27:26.599Z,5.50
2023-03-07T12:29:59.609Z,5.27
2023-03-07T12:32:27.897Z,5.27
2023-03-07T12:35:01.345Z,4.77
2023-03-07T12:37:49.427Z,8.47
2023-03-07T12:40:48.912Z,11.60
2023-03-07T12:43:25.209Z,12.83
2023-03-07T12:46:24.707Z,9.40
2023-03-07T12:49:02.119Z,7.03
2023-03-07T12:51:53.305Z,7.73
2023-03-07T12:54:26.570Z,9.63
2023-03-07T12:56:59.521Z,8.57
2023-03-07T12:59:29.556Z,11.20
2023-03-07T13:02:04.866Z,14.23
2023-03-07T13:04:38.734Z,10.57
2023-03-07T13:07:17.664Z,10.70
2023-03-07T13:09:47.675Z,9.63
2023-03-07T13:12:16.136Z,13.97
2023-03-07T13:14:46.614Z,9.53
2023-03-07T13:17:33.883Z,11.40
2023-03-07T13:20:18.914Z,11.80
2023-03-07T13:22:46.128Z,9.57
2023-03-07T13:25:27.987Z,8.10
2023-03-07T13:27:56.715Z,7.90
2023-03-07T13:30:25.018Z,10.77
2023-03-07T13:32:52.254Z,8.67
2023-03-07T13:35:28.995Z,10.23
2023-03-07T13:38:13.352Z,11.83
2023-03-07T13:40:46.655Z,12.83
2023-03-07T13:43:20.326Z,9.63
2023-03-07T13:45:59.229Z,8.70
2023-03-07T13:48:32.272Z,13.00
2023-03-07T13:51:00.160Z,9.83
2023-03-07T13:53:43.105Z,10.93
2023-03-07T13:56:16.243Z,6.23
2023-03-07T13:58:50.136Z,11.77
2023-03-07T14:01:19.017Z,17.23
2023-03-07T14:03:51.448Z,10.30
2023-03-07T14:06:22.495Z,8.80
2023-03-07T14:08:51.402Z,11.50
2023-03-07T14:11:28.421Z,7.57
2023-03-07T14:14:22.739Z,8.37
2023-03-07T14:17:08.414Z,8.00
2023-03-07T14:19:53.998Z,9.27
2023-03-07T14:22:42.771Z,9.47
2023-03-07T14:25:22.606Z,10.47
2023-03-07T14:27:55.228Z,10.37
2023-03-07T14:30:24.765Z,12.50
2023-03-07T14:32:52.305Z,8.20
2023-03-07T14:35:40.005Z,7.30
2023-03-07T14:38:14.777Z,15.37
2023-03-07T14:41:03.123Z,6.77
2023-03-07T14:43:42.217Z,10.43
2023-03-07T14:46:23.075Z,8.50
2023-03-07T14:49:20.508Z,6.10
2023-03-07T14:51:48.143Z,7.07
2023-03-07T14:54:19.487Z,12.53
2023-03-07T14:56:51.300Z,8.40
2023-03-07T14:59:28.003Z,10.00
2023-03-07T15:01:57.021Z,6.83
2023-03-07T15:04:25.788Z,6.37
2023-03-07T15:06:58.845Z,6.57
2023-03-07T15:09:27.036Z,8.77
2023-03-07T15:12:09.707Z,6.10
2023-03-07T15:14:45.285Z,6.87
2023-03-07T15:17:25.911Z,8.70
2023-03-07T15:20:04.065Z,6.77
2023-03-07T15:22:39.678Z,7.67
2023-03-07T15:25:23.957Z,7.33
2023-03-07T15:28:24.296Z,10.47
2023-03-07T15:30:53.684Z,8.13
2023-03-07T15:33:27.868Z,11.23
2023-03-07T15:36:19.055Z,9.47
2023-03-07T15:38:52.934Z,9.23
2023-03-07T15:41:33.534Z,9.63
2023-03-07T15:44:13.069Z,10.27
2023-03-07T15:46:46.742Z,11.97
2023-03-07T15:49:42.522Z,12.23
2023-03-07T15:52:25.244Z,12.07
2023-03-07T15:54:54.964Z,13.43
2023-03-07T15:57:26.752Z,13.03
2023-03-07T16:00:22.741Z,12.53
2023-03-07T16:02:51.387Z,14.17
2023-03-07T16:05:24.797Z,16.50
2023-03-07T16:07:53.710Z,13.83
2023-03-07T16:10:24.550Z,15.77
2023-03-07T16:12:51.851Z,13.63
2023-03-07T16:15:22.589Z,19.00
2023-03-07T16:17:53.317Z,18.57
2023-03-07T16:20:26.998Z,15.73
2023-03-07T16:22:54.823Z,15.57
2023-03-07T16:25:24.272Z,15.40
2023-03-07T16:27:56.987Z,19.27
2023-03-07T16:30:27.691Z,17.77
2023-03-07T16:32:55.770Z,16.50
2023-03-07T16:35:25.714Z,16.53
2023-03-07T16:37:54.605Z,24.40
2023-03-07T16:40:23.030Z,18.13
2023-03-07T16:42:50.845Z,26.07
2023-03-07T16:45:26.024Z,19.80
2023-03-07T16:47:55.491Z,29.13
2023-03-07T16:50:26.040Z,22.80
2023-03-07T16:52:53.569Z,23.27
2023-03-07T16:55:21.304Z,19.60
2023-03-07T16:57:54.647Z,18.47
2023-03-07T17:00:26.973Z,19.00
2023-03-07T17:02:56.916Z,21.17
2023-03-07T17:05:27.188Z,20.70
2023-03-07T17:07:56.157Z,21.57
2023-03-07T17:10:26.377Z,19.93
2023-03-07T17:12:56.938Z,18.83
2023-03-07T17:15:30.422Z,18.83
2023-03-07T17:17:58.984Z,21.87
2023-03-07T17:20:27.527Z,20.53
2023-03-07T17:22:55.324Z,21.47
2023-03-07T17:25:23.016Z,22.50
2023-03-07T17:27:58.689Z,19.87
2023-03-07T17:30:29.161Z,21.30
2023-03-07T17:32:57.884Z,20.80
2023-03-07T17:35:25.510Z,21.93
2023-03-07T17:37:53.634Z,23.17
2023-03-07T17:40:22.122Z,20.40
2023-03-07T17:42:52.457Z,22.70
2023-03-07T17:45:19.994Z,18.77
2023-03-07T17:47:54.433Z,21.13
2023-03-07T17:50:25.587Z,20.47
2023-03-07T17:52:54.583Z,21.70
2023-03-07T17:55:25.264Z,21.00
2023-03-07T17:57:52.735Z,22.17
2023-03-07T18:00:21.097Z,22.00
2023-03-07T18:02:49.056Z,21.30
2023-03-07T18:05:16.529Z,23.87
2023-03-07T18:07:43.894Z,46.70
2023-03-07T18:10:12.680Z,25.33
2023-03-07T18:12:40.182Z,24.27
2023-03-07T18:15:12.841Z,21.87
2023-03-07T18:17:47.908Z,22.73
2023-03-07T18:20:18.682Z,21.53
2023-03-07T18:22:46.157Z,23.73
2023-03-07T18:25:15.617Z,20.27
2023-03-07T18:27:43.739Z,20.50
2023-03-07T18:30:11.999Z,19.17
2023-03-07T18:32:39.420Z,21.20
2023-03-07T18:35:07.822Z,20.57
2023-03-07T18:37:35.316Z,20.87
2023-03-07T18:40:04.167Z,21.07
2023-03-07T18:42:31.525Z,21.57
2023-03-07T18:44:58.819Z,22.57
2023-03-07T18:47:26.171Z,22.40
2023-03-07T18:49:53.513Z,19.73
2023-03-07T18:52:20.762Z,19.80
2023-03-07T18:54:48.569Z,21.53
2023-03-07T18:57:16.040Z,19.67
2023-03-07T18:59:43.646Z,23.07
2023-03-07T19:02:11.202Z,18.77
2023-03-07T19:04:38.512Z,18.90
2023-03-07T19:07:05.836Z,20.97
2023-03-07T19:09:33.208Z,19.17
2023-03-07T19:12:00.447Z,20.93
2023-03-07T19:14:27.778Z,19.17
2023-03-07T19:16:55.063Z,19.23
2023-03-07T19:19:22.315Z,20.57
2023-03-07T19:21:49.622Z,24.07
2023-03-07T19:24:16.911Z,27.93
2023-03-07T19:26:44.214Z,30.33
2023-03-07T19:29:13.000Z,30.03
2023-03-07T19:31:43.664Z,25.80
2023-03-07T19:34:11.267Z,22.60
2023-03-07T19:36:41.185Z,25.67
2023-03-07T19:39:10.609Z,23.57
2023-03-07T19:41:39.593Z,22.40
2023-03-07T19:44:11.954Z,21.77
2023-03-07T19:46:39.444Z,24.90
2023-03-07T19:49:07.906Z,22.37
2023-03-07T19:51:35.249Z,20.70
2023-03-07T19:54:04.174Z,23.10
2023-03-07T19:56:32.856Z,27.87
2023-03-07T19:59:02.061Z,23.57
2023-03-07T20:01:29.970Z,23.60
2023-03-07T20:03:57.412Z,26.93
2023-03-07T20:06:28.059Z,24.93
2023-03-07T20:08:56.193Z,20.20
2023-03-07T20:11:27.286Z,24.73
2023-03-07T20:13:56.798Z,25.17
2023-03-07T20:16:27.109Z,23.47
2023-03-07T20:18:56.201Z,18.90
2023-03-07T20:21:28.284Z,19.73
2023-03-07T20:23:59.424Z,22.23
2023-03-07T20:26:35.936Z,23.40
2023-03-07T20:29:06.185Z,21.87
2023-03-07T20:31:36.092Z,24.70
2023-03-07T20:34:03.602Z,23.93
2023-03-07T20:36:35.953Z,33.73
2023-03-07T20:39:10.371Z,39.60
2023-03-07T20:41:37.721Z,45.47
2023-03-07T20:44:06.990Z,46.03
2023-03-07T20:46:38.532Z,31.07
2023-03-07T20:49:05.930Z,41.63
2023-03-07T20:51:36.023Z,35.43
2023-03-07T20:54:17.197Z,27.13
2023-03-07T20:56:45.765Z,30.70
2023-03-07T20:59:15.570Z,25.60
2023-03-07T21:01:43.207Z,30.10
2023-03-07T21:04:13.350Z,32.93
2023-03-07T21:06:42.961Z,31.93
2023-03-07T21:09:12.079Z,27.80
2023-03-07T21:11:45.023Z,26.50
2023-03-07T21:14:13.105Z,25.27
2023-03-07T21:16:40.708Z,23.70
2023-03-07T21:19:08.526Z,23.47
2023-03-07T21:21:36.293Z,25.10
2023-03-07T21:24:04.407Z,24.30
2023-03-07T21:26:33.827Z,20.43
2023-03-07T21:29:01.259Z,22.33
2023-03-07T21:31:31.626Z,26.07
2023-03-07T21:34:01.539Z,25.03
2023-03-07T21:36:31.477Z,23.37
2023-03-07T21:38:59.866Z,18.60
2023-03-07T21:41:27.643Z,20.13
2023-03-07T21:43:56.291Z,22.83
2023-03-07T21:46:24.148Z,23.23
2023-03-07T21:48:51.935Z,24.17
2023-03-07T21:51:20.123Z,19.07
2023-03-07T21:53:47.801Z,20.87
2023-03-07T21:56:17.336Z,22.33
2023-03-07T21:58:48.748Z,27.70
2023-03-07T22:01:28.599Z,24.30
2023-03-07T22:03:58.760Z,30.50
2023-03-07T22:06:27.192Z,39.27
2023-03-07T22:08:54.736Z,42.57
2023-03-07T22:11:22.508Z,38.43
2023-03-07T22:13:50.180Z,36.67
2023-03-07T22:16:20.756Z,27.60
2023-03-07T22:18:55.479Z,21.57
2023-03-07T22:21:26.053Z,24.30
2023-03-07T22:23:57.799Z,21.70
2023-03-07T22:26:26.523Z,22.33
2023-03-07T22:28:54.658Z,21.17
2023-03-07T22:31:22.150Z,22.23
2023-03-07T22:33:49.535Z,24.63
2023-03-07T22:36:17.460Z,20.77
2023-03-07T22:38:44.813Z,21.70
2023-03-07T22:41:13.925Z,19.77
2023-03-07T22:43:43.412Z,22.17
2023-03-07T22:46:11.614Z,24.13
2023-03-07T22:48:39.367Z,21.27
2023-03-07T22:51:20.536Z,25.07
2023-03-07T22:53:49.052Z,22.70
2023-03-07T22:56:22.646Z,23.27
2023-03-07T22:58:50.359Z,22.13
2023-03-07T23:01:20.961Z,21.03
2023-03-07T23:03:50.192Z,24.07
2023-03-07T23:06:17.983Z,23.77
2023-03-07T23:08:47.077Z,25.33
2023-03-07T23:11:17.182Z,27.50
2023-03-07T23:13:45.191Z,26.07
2023-03-07T23:16:15.440Z,25.13
2023-03-07T23:18:44.228Z,25.90
2023-03-07T23:21:15.566Z,26.77
2023-03-07T23:23:43.085Z,26.13
2023-03-07T23:26:26.561Z,23.13
2023-03-07T23:28:54.373Z,25.73
2023-03-07T23:31:33.431Z,23.70
2023-03-07T23:34:06.941Z,27.27
2023-03-07T23:36:35.089Z,28.83
2023-03-07T23:39:02.455Z,24.73
2023-03-07T23:41:29.955Z,25.73
2023-03-07T23:43:59.584Z,31.60
2023-03-07T23:46:27.925Z,25.80
2023-03-07T23:48:55.563Z,30.27
2023-03-07T23:51:23.551Z,28.60
2023-03-07T23:53:50.927Z,24.40
2023-03-07T23:56:18.228Z,29.67
2023-03-07T23:58:49.391Z,26.67
